Stations météo

Publicité
Cardiff, Bute Park, Grande-Bretagne (99160): Température de l'air & dewpoint: 03.08.2020 23:00:00 - 09.08.2020 23:00:00 (BST)Cardiff, Bute Park, Grande-Bretagne (99160): Température de l'air -20cm & Température de l'air -100cm: 03.08.2020 23:00:00 - 09.08.2020 23:00:00 (BST)Cardiff, Bute Park, Grande-Bretagne (99160): Quantités de précipitations: 03.08.2020 23:00:00 - 09.08.2020 23:00:00 (BST)
Date & Time tt [°C] td [°C] tt -20cm [°C] tt -100cm [°C] rr [mm]
09.08.2020 23:00:00 17,4 15,8 - - 0,0
09.08.2020 22:00:00 18,2 15,9 - - 0,0
09.08.2020 21:00:00 19,2 16,1 - - 0,0
09.08.2020 20:00:00 20,6 16,5 - - 0,0
09.08.2020 19:00:00 22,5 16,9 - - 0,0
09.08.2020 18:00:00 23,3 15,8 - - 0,0
09.08.2020 17:00:00 23,5 15,8 - - 0,0
09.08.2020 16:00:00 22,9 15,2 - - 0,0
09.08.2020 15:00:00 21,5 15,1 - - 0,0
09.08.2020 14:00:00 20,6 14,5 - - 0,0
09.08.2020 13:00:00 19,0 14,2 - - 0,0
09.08.2020 12:00:00 18,0 14,1 - - 0,0
09.08.2020 11:00:00 17,5 14,3 - - 0,0
09.08.2020 10:00:00 17,0 13,8 19,7 17,4 0,0
09.08.2020 09:00:00 16,6 13,8 - - 0,0
09.08.2020 08:00:00 16,9 14,1 - - 0,0
09.08.2020 07:00:00 17,1 14,2 - - 0,0
09.08.2020 06:00:00 17,3 14,3 - - 0,0
09.08.2020 05:00:00 17,0 14,0 - - 0,0
09.08.2020 04:00:00 17,9 13,9 - - 0,0
09.08.2020 03:00:00 18,9 14,0 - - 0,0
09.08.2020 02:00:00 19,8 14,1 - - 0,0
09.08.2020 01:00:00 20,9 14,7 - - 0,0
09.08.2020 00:00:00 21,9 15,7 - - 0,0
08.08.2020 23:00:00 21,7 18,1 - - 0,0
08.08.2020 22:00:00 21,0 19,0 - - 0,0
08.08.2020 21:00:00 22,7 19,2 - - 0,0
08.08.2020 20:00:00 23,9 19,2 - - 0,0
08.08.2020 19:00:00 24,9 19,2 - - 0,0
08.08.2020 18:00:00 26,8 18,8 - - 0,0
08.08.2020 17:00:00 28,7 17,4 - - 0,0
08.08.2020 16:00:00 28,0 17,0 - - 0,0
08.08.2020 15:00:00 27,8 16,9 - - 0,0
08.08.2020 14:00:00 27,2 17,3 - - 0,0
08.08.2020 13:00:00 25,9 17,3 - - 0,0
08.08.2020 12:00:00 24,7 17,4 - - 0,0
08.08.2020 11:00:00 23,7 17,4 - - 0,0
08.08.2020 10:00:00 21,8 17,2 19,2 17,2 0,0
08.08.2020 09:00:00 19,3 17,2 - - 0,0
08.08.2020 08:00:00 16,8 16,6 - - 0,0
08.08.2020 07:00:00 15,2 15,1 - - 0,0
08.08.2020 06:00:00 15,0 14,7 - - 0,0
08.08.2020 05:00:00 15,7 15,4 - - 0,0
08.08.2020 04:00:00 16,4 16,0 - - 0,0
08.08.2020 03:00:00 16,9 16,6 - - 0,0
08.08.2020 02:00:00 17,0 16,6 - - 0,0
08.08.2020 01:00:00 17,1 16,1 - - 0,0
08.08.2020 00:00:00 18,4 16,7 - - 0,0
07.08.2020 23:00:00 19,6 17,2 - - 0,0
07.08.2020 22:00:00 20,6 17,2 - - 0,0
07.08.2020 21:00:00 21,4 16,6 - - 0,0
07.08.2020 20:00:00 22,2 16,6 - - 0,0
07.08.2020 19:00:00 23,6 15,6 - - 0,0
07.08.2020 18:00:00 27,1 16,3 - - 0,0
07.08.2020 17:00:00 27,6 18,0 - - 0,0
07.08.2020 16:00:00 28,2 17,1 - - 0,0
07.08.2020 15:00:00 27,3 16,7 - - 0,0
07.08.2020 14:00:00 26,2 16,0 - - 0,0
07.08.2020 13:00:00 25,6 16,4 - - 0,0
07.08.2020 12:00:00 25,0 16,1 - - 0,0
07.08.2020 11:00:00 23,0 16,6 - - 0,0
07.08.2020 10:00:00 21,3 17,2 18,5 17,2 0,0
07.08.2020 09:00:00 19,6 17,5 - - 0,0
07.08.2020 08:00:00 16,8 16,8 - - 0,0
07.08.2020 07:00:00 13,7 13,6 - - 0,0
07.08.2020 06:00:00 13,6 13,3 - - 0,0
07.08.2020 05:00:00 14,5 14,2 - - 0,0
07.08.2020 04:00:00 15,1 14,8 - - 0,0
07.08.2020 03:00:00 15,6 15,2 - - 0,0
07.08.2020 02:00:00 16,2 15,8 - - 0,0
07.08.2020 01:00:00 17,0 16,5 - - 0,0
07.08.2020 00:00:00 17,6 16,8 - - 0,0
06.08.2020 23:00:00 18,0 16,9 - - 0,0
06.08.2020 22:00:00 18,8 17,1 - - 0,0
06.08.2020 21:00:00 20,8 17,6 - - 0,0
06.08.2020 20:00:00 21,6 18,4 - - 0,0
06.08.2020 19:00:00 22,2 18,5 - - 0,0
06.08.2020 18:00:00 22,6 18,4 - - 0,0
06.08.2020 17:00:00 23,0 18,8 - - 0,0
06.08.2020 16:00:00 22,6 18,5 - - 0,0
06.08.2020 15:00:00 20,9 19,0 - - 0,0
06.08.2020 14:00:00 20,7 18,6 - - 0,2
06.08.2020 13:00:00 19,7 18,9 - - 0,0
06.08.2020 12:00:00 19,1 17,5 - - 0,0
06.08.2020 11:00:00 18,6 16,8 - - 0,0
06.08.2020 10:00:00 17,9 16,2 18,4 17,2 0,0
06.08.2020 09:00:00 17,7 16,0 - - 0,0
06.08.2020 08:00:00 16,9 16,1 - - 0,0
06.08.2020 07:00:00 16,1 15,6 - - 0,0
06.08.2020 06:00:00 16,0 15,5 - - 0,0
06.08.2020 05:00:00 16,0 15,4 - - 0,0
06.08.2020 04:00:00 16,1 15,6 - - 0,0
06.08.2020 03:00:00 16,2 15,7 - - 0,0
06.08.2020 02:00:00 16,2 15,6 - - 0,0
06.08.2020 01:00:00 16,4 15,7 - - 0,0
06.08.2020 00:00:00 16,8 16,0 - - 0,0
05.08.2020 23:00:00 17,2 16,5 - - 0,0
05.08.2020 22:00:00 17,4 16,5 - - 0,2
05.08.2020 21:00:00 18,0 17,1 - - 0,4
05.08.2020 20:00:00 18,6 17,8 - - 0,4
05.08.2020 19:00:00 19,1 17,4 - - 0,0
05.08.2020 18:00:00 19,6 16,8 - - 0,0
05.08.2020 17:00:00 19,4 16,9 - - 1,2
05.08.2020 16:00:00 19,2 17,5 - - 1,2
05.08.2020 15:00:00 19,7 16,9 - - 0,4
05.08.2020 14:00:00 20,7 15,6 - - 0,0
05.08.2020 13:00:00 21,5 14,7 - - 0,0
05.08.2020 12:00:00 21,1 15,2 - - 0,0
05.08.2020 11:00:00 20,3 15,9 - - 0,0
05.08.2020 10:00:00 20,0 15,7 18,0 17,2 0,0
05.08.2020 09:00:00 19,3 15,8 - - 0,0
05.08.2020 08:00:00 18,4 16,4 - - 0,0
05.08.2020 07:00:00 17,5 15,8 - - 0,0
05.08.2020 06:00:00 17,7 15,5 - - 0,0
05.08.2020 05:00:00 17,7 15,3 - - 0,0
05.08.2020 04:00:00 17,6 15,1 - - 0,0
05.08.2020 03:00:00 17,6 15,2 - - 0,0
05.08.2020 02:00:00 17,7 14,9 - - 0,0
05.08.2020 01:00:00 17,7 14,8 - - 0,0
05.08.2020 00:00:00 17,9 14,5 - - 0,0
04.08.2020 23:00:00 17,7 14,4 - - 0,0
04.08.2020 22:00:00 17,9 14,0 - - 0,0
04.08.2020 21:00:00 - - - - -
04.08.2020 20:00:00 18,4 13,8 - - 0,0
04.08.2020 19:00:00 18,5 13,5 - - 0,0
04.08.2020 18:00:00 18,7 13,4 - - 0,0
04.08.2020 17:00:00 19,0 13,1 - - 0,0
04.08.2020 16:00:00 18,9 12,3 - - 0,0
04.08.2020 15:00:00 19,0 10,8 - - 0,0
04.08.2020 14:00:00 19,4 11,1 - - 0,0
04.08.2020 13:00:00 18,5 10,5 - - 0,0
04.08.2020 12:00:00 17,7 9,5 - - 0,0
04.08.2020 11:00:00 17,7 10,4 - - 0,0
04.08.2020 10:00:00 16,0 10,6 18,0 17,2 0,0
04.08.2020 09:00:00 14,0 10,5 - - 0,0
04.08.2020 08:00:00 12,2 8,3 - - 0,0
04.08.2020 07:00:00 10,0 8,2 - - 0,0
04.08.2020 06:00:00 8,4 7,4 - - 0,0
04.08.2020 05:00:00 8,5 7,7 - - 0,0
04.08.2020 04:00:00 7,8 6,9 - - 0,0
04.08.2020 03:00:00 7,6 6,8 - - 0,0
04.08.2020 02:00:00 8,0 6,9 - - 0,0
04.08.2020 01:00:00 8,8 7,1 - - 0,0
04.08.2020 00:00:00 9,6 7,3 - - 0,0
03.08.2020 23:00:00 10,5 7,4 - - 0,0

tt = Température de l'air
td = dewpoint
tt -20cm = Température de l'air -20cm
tt -100cm = Température de l'air -100cm
rr = Quantités de précipitations

stations d'obs. à proximité